ESSD Airport Information

Runway Information
Runway 14 Length 7579 ft width 148 ft
Elevation 503 ft Threshold 0 ft Heading 133
Runway 32 Length 7579 ft Width 148 ft
Elevation 493 ft Threshold 0 ft Heading 313
Airport Frequencies
Type TWR Name TWR Frequency 127.3 MHZ
Airport Navaids
Type VOR-DME Name Borlange Frequency 117600 KHZ
Airport Weather Information & NOTAM
ADDS - METARS form results

(0457 UTC 14 April 2021)
Data provider http://aviationweather.gov/metar/data/
 
METAR text: ESSD 140450Z AUTO 27007KT 9999 NCD M02/M05 Q1023
Conditions at: ESSD (BORLANGE (SWE-AF, SE) observed 0450 UTC 14 April 2021
Temperature: -2.0°C (28°F)
Dewpoint: -5.0°C (23°F) [RH = 80%]
Pressure (altimeter): 30.21 inches Hg (1023.0 mb)
Winds: from the W (270 degrees) at 8 MPH (7 knots; 3.6 m/s)
Visibility: 6 or more miles (10+ km)
Ceiling: at least 12,000 feet AGL
Clouds: sky clear below 12,000 feet AGL
Weather: no significant weather observed at this time

METAR text: ESSD 140420Z AUTO 26008KT 9999 NCD M03/M05 Q1023
Conditions at: ESSD (BORLANGE (SWE-AF, SE) observed 0420 UTC 14 April 2021
Temperature: -3.0°C (27°F)
Dewpoint: -5.0°C (23°F) [RH = 86%]
Pressure (altimeter): 30.21 inches Hg (1023.0 mb)
Winds: from the W (260 degrees) at 9 MPH (8 knots; 4.1 m/s)
Visibility: 6 or more miles (10+ km)
Ceiling: at least 12,000 feet AGL
Clouds: sky clear below 12,000 feet AGL
Weather: no significant weather observed at this time